createdAt,value
2022-11-22T00:00:59.945Z,972.49
2022-11-22T00:01:59.952Z,972.52
2022-11-22T00:03:00.224Z,972.49
2022-11-22T00:03:59.905Z,972.51
2022-11-22T00:04:59.882Z,972.49
2022-11-22T00:05:59.874Z,972.46
2022-11-22T00:06:59.871Z,972.45
2022-11-22T00:07:59.876Z,972.39
2022-11-22T00:08:59.894Z,972.37
2022-11-22T00:09:59.846Z,972.39
2022-11-22T00:10:59.827Z,972.28
2022-11-22T00:11:59.825Z,972.28
2022-11-22T00:12:59.797Z,972.30
2022-11-22T00:13:59.796Z,972.28
2022-11-22T00:15:00.182Z,972.26
2022-11-22T00:15:59.783Z,972.27
2022-11-22T00:16:59.784Z,972.28
2022-11-22T00:17:59.764Z,972.23
2022-11-22T00:18:59.733Z,972.22
2022-11-22T00:19:59.742Z,972.25
2022-11-22T00:20:59.705Z,972.26
2022-11-22T00:22:00.175Z,972.27
2022-11-22T00:22:59.726Z,972.30
2022-11-22T00:23:59.704Z,972.23
2022-11-22T00:24:59.689Z,972.24
2022-11-22T00:25:59.694Z,972.24
2022-11-22T00:26:59.686Z,972.17
2022-11-22T00:27:59.645Z,972.18
2022-11-22T00:28:59.625Z,972.17
2022-11-22T00:29:59.656Z,972.19
2022-11-22T00:30:59.610Z,972.15
2022-11-22T00:31:59.627Z,972.20
2022-11-22T00:32:59.644Z,972.17
2022-11-22T00:33:59.594Z,972.14
2022-11-22T00:34:59.574Z,972.12
2022-11-22T00:35:59.576Z,972.12
2022-11-22T00:36:59.547Z,972.07
2022-11-22T00:37:59.588Z,972.11
2022-11-22T00:38:59.588Z,972.16
2022-11-22T00:39:59.542Z,972.11
2022-11-22T00:40:59.574Z,972.11
2022-11-22T00:41:59.514Z,972.10
2022-11-22T00:42:59.485Z,972.08
2022-11-22T00:43:59.529Z,972.04
2022-11-22T00:44:59.523Z,972.02
2022-11-22T00:45:59.465Z,972.02
2022-11-22T00:46:59.724Z,971.96
2022-11-22T00:48:00.426Z,971.94
2022-11-22T00:48:59.437Z,971.93
2022-11-22T00:49:59.485Z,971.97
2022-11-22T00:50:59.437Z,971.91
2022-11-22T00:51:59.448Z,971.95
2022-11-22T00:52:59.406Z,972.01
2022-11-22T00:53:59.399Z,971.99
2022-11-22T00:54:59.526Z,971.99
2022-11-22T00:55:59.388Z,971.96
2022-11-22T00:56:59.675Z,972.02
2022-11-22T00:57:59.345Z,972.01
2022-11-22T00:58:59.322Z,971.95
2022-11-22T00:59:59.333Z,971.99
2022-11-22T01:00:59.337Z,971.99
2022-11-22T01:01:59.348Z,971.94
2022-11-22T01:02:59.274Z,971.85
2022-11-22T01:03:59.310Z,971.86
2022-11-22T01:04:59.267Z,971.79
2022-11-22T01:05:59.269Z,971.78
2022-11-22T01:06:59.276Z,971.80
2022-11-22T01:07:59.704Z,971.76
2022-11-22T01:08:59.227Z,971.77
2022-11-22T01:09:59.238Z,971.78
2022-11-22T01:10:59.226Z,971.77
2022-11-22T01:11:59.246Z,971.80
2022-11-22T01:12:59.196Z,971.82
2022-11-22T01:14:01.210Z,971.83
2022-11-22T01:14:59.166Z,971.85
2022-11-22T01:15:59.176Z,971.81
2022-11-22T01:16:59.135Z,971.78
2022-11-22T01:17:59.153Z,971.81
2022-11-22T01:18:59.123Z,971.78
2022-11-22T01:19:59.184Z,971.84
2022-11-22T01:20:59.804Z,971.80
2022-11-22T01:21:59.137Z,971.78
2022-11-22T01:22:59.098Z,971.75
2022-11-22T01:23:59.115Z,971.74
2022-11-22T01:24:59.096Z,971.71
2022-11-22T01:26:00.766Z,971.72
2022-11-22T01:26:59.050Z,971.64
2022-11-22T01:27:59.036Z,971.64
2022-11-22T01:28:59.025Z,971.58
2022-11-22T01:29:59.040Z,971.59
2022-11-22T01:30:59.005Z,971.53
2022-11-22T01:31:59.016Z,971.55
2022-11-22T01:32:58.986Z,971.53
2022-11-22T01:33:59.095Z,971.52
2022-11-22T01:34:58.958Z,971.50
2022-11-22T01:35:58.978Z,971.52
2022-11-22T01:36:58.958Z,971.49
2022-11-22T01:37:58.957Z,971.47
2022-11-22T01:38:58.941Z,971.40
2022-11-22T01:39:58.972Z,971.42
2022-11-22T01:40:59.076Z,971.35
2022-11-22T01:41:58.946Z,971.35
2022-11-22T01:42:58.895Z,971.35
2022-11-22T01:43:58.898Z,971.34
2022-11-22T01:44:58.876Z,971.36
2022-11-22T01:45:58.886Z,971.42
2022-11-22T01:46:58.849Z,971.37
2022-11-22T01:47:58.869Z,971.38
2022-11-22T01:49:00.509Z,971.42
2022-11-22T01:49:58.849Z,971.40
2022-11-22T01:50:58.809Z,971.39
2022-11-22T01:51:58.820Z,971.40
2022-11-22T01:52:58.786Z,971.40
2022-11-22T01:53:58.787Z,971.45
2022-11-22T01:54:58.790Z,971.39
2022-11-22T01:55:58.767Z,971.40
2022-11-22T01:56:58.757Z,971.36
2022-11-22T01:57:58.756Z,971.42
2022-11-22T01:58:58.735Z,971.44
2022-11-22T01:59:58.728Z,971.40
2022-11-22T02:00:58.852Z,971.46
2022-11-22T02:01:58.719Z,971.46
2022-11-22T02:02:58.709Z,971.44
2022-11-22T02:03:58.718Z,971.49
2022-11-22T02:04:59.239Z,971.46
2022-11-22T02:05:58.679Z,971.42
2022-11-22T02:06:58.678Z,971.39
2022-11-22T02:07:58.646Z,971.37
2022-11-22T02:08:58.658Z,971.43
2022-11-22T02:09:58.627Z,971.41
2022-11-22T02:11:03.337Z,971.43
2022-11-22T02:11:58.633Z,971.37
2022-11-22T02:12:58.586Z,971.36
2022-11-22T02:13:58.728Z,971.36
2022-11-22T02:14:58.589Z,971.37
2022-11-22T02:15:58.579Z,971.34
2022-11-22T02:16:58.547Z,971.35
2022-11-22T02:17:58.558Z,971.40
2022-11-22T02:18:58.540Z,971.44
2022-11-22T02:19:58.548Z,971.44
2022-11-22T02:20:58.511Z,971.35
2022-11-22T02:21:58.532Z,971.33
2022-11-22T02:22:58.500Z,971.32
2022-11-22T02:24:55.350Z,971.34
2022-11-22T02:25:55.368Z,971.38
2022-11-22T02:26:55.329Z,971.41
2022-11-22T02:27:55.338Z,971.43
2022-11-22T02:28:55.306Z,971.42
2022-11-22T02:29:55.332Z,971.42
2022-11-22T02:30:55.737Z,971.37
2022-11-22T02:31:55.288Z,971.42
2022-11-22T02:32:55.258Z,971.42
2022-11-22T02:33:58.849Z,971.48
2022-11-22T02:34:56.236Z,971.42
2022-11-22T02:35:55.254Z,971.44
2022-11-22T02:36:55.240Z,971.40
2022-11-22T02:37:55.249Z,971.45
2022-11-22T02:38:55.240Z,971.41
2022-11-22T02:39:55.197Z,971.41
2022-11-22T02:40:55.247Z,971.42
2022-11-22T02:41:55.187Z,971.43
2022-11-22T02:42:55.147Z,971.41
2022-11-22T02:43:55.186Z,971.38
2022-11-22T02:44:55.159Z,971.41
2022-11-22T02:45:55.159Z,971.37
2022-11-22T02:46:55.122Z,971.40
2022-11-22T02:47:55.140Z,971.33
2022-11-22T02:48:55.210Z,971.35
2022-11-22T02:49:55.118Z,971.37
2022-11-22T02:50:55.082Z,971.39
2022-11-22T02:51:55.077Z,971.33
2022-11-22T02:52:55.058Z,971.34
2022-11-22T02:53:55.088Z,971.35
2022-11-22T02:54:55.038Z,971.33
2022-11-22T02:55:55.056Z,971.35
2022-11-22T02:56:55.008Z,971.32
2022-11-22T02:57:55.008Z,971.32
2022-11-22T02:58:54.987Z,971.28
2022-11-22T02:59:55.027Z,971.25
2022-11-22T03:00:55.136Z,971.27
2022-11-22T03:02:00.041Z,971.28
2022-11-22T03:02:55.959Z,971.25
2022-11-22T03:03:54.970Z,971.24
2022-11-22T03:04:54.964Z,971.30
2022-11-22T03:05:54.949Z,971.25
2022-11-22T03:06:54.924Z,971.28
2022-11-22T03:07:54.976Z,971.29
2022-11-22T03:08:56.704Z,971.30
2022-11-22T03:09:54.907Z,971.27
2022-11-22T03:10:54.898Z,971.29
2022-11-22T03:11:54.880Z,971.28
2022-11-22T03:12:54.870Z,971.28
2022-11-22T03:13:54.858Z,971.28
2022-11-22T03:14:54.829Z,971.28
2022-11-22T03:15:54.841Z,971.28
2022-11-22T03:16:54.950Z,971.34
2022-11-22T03:17:54.820Z,971.38
2022-11-22T03:18:54.802Z,971.46
2022-11-22T03:19:54.808Z,971.54
2022-11-22T03:20:54.769Z,971.52
2022-11-22T03:21:54.791Z,971.54
2022-11-22T03:22:54.778Z,971.51
2022-11-22T03:23:54.750Z,971.45
2022-11-22T03:24:54.740Z,971.43
2022-11-22T03:25:54.759Z,971.40
2022-11-22T03:26:54.699Z,971.39
2022-11-22T03:27:54.730Z,971.46
2022-11-22T03:28:54.711Z,971.48
2022-11-22T03:29:54.688Z,971.49
2022-11-22T03:30:54.666Z,971.53
2022-11-22T03:31:55.228Z,971.53
2022-11-22T03:32:54.659Z,971.45
2022-11-22T03:33:54.662Z,971.46
2022-11-22T03:34:54.640Z,971.49
2022-11-22T03:35:54.658Z,971.43
2022-11-22T03:36:54.641Z,971.43
2022-11-22T03:37:54.630Z,971.41
2022-11-22T03:38:54.592Z,971.39
2022-11-22T03:39:54.599Z,971.39
2022-11-22T03:40:54.670Z,971.36
2022-11-22T03:41:54.568Z,971.37
2022-11-22T03:42:54.568Z,971.42
2022-11-22T03:43:54.560Z,971.37
2022-11-22T03:44:54.540Z,971.38
2022-11-22T03:45:54.530Z,971.33
2022-11-22T03:46:54.512Z,971.30
2022-11-22T03:47:54.526Z,971.24
2022-11-22T03:48:54.500Z,971.24
2022-11-22T03:49:54.510Z,971.26
2022-11-22T03:50:55.138Z,971.25
2022-11-22T03:51:54.468Z,971.23
2022-11-22T03:52:54.438Z,971.28
2022-11-22T03:53:54.448Z,971.25
2022-11-22T03:54:54.441Z,971.25
2022-11-22T03:55:54.435Z,971.27
2022-11-22T03:56:54.411Z,971.30
2022-11-22T03:57:54.420Z,971.28
2022-11-22T03:58:55.351Z,971.29
2022-11-22T03:59:54.431Z,971.25
2022-11-22T04:00:54.370Z,971.27
2022-11-22T04:01:54.490Z,971.28
2022-11-22T04:02:54.351Z,971.29
2022-11-22T04:03:54.359Z,971.32
2022-11-22T04:04:54.329Z,971.31
2022-11-22T04:05:54.335Z,971.32
2022-11-22T04:06:54.299Z,971.33
2022-11-22T04:07:54.376Z,971.39
2022-11-22T04:08:54.395Z,971.38
2022-11-22T04:09:54.346Z,971.40
2022-11-22T04:10:54.290Z,971.41
2022-11-22T04:11:54.260Z,971.41
2022-11-22T04:12:54.270Z,971.47
2022-11-22T04:13:54.249Z,971.44
2022-11-22T04:14:55.922Z,971.45
2022-11-22T04:15:54.261Z,971.47
2022-11-22T04:16:54.219Z,971.43
2022-11-22T04:17:54.201Z,971.43
2022-11-22T04:18:54.209Z,971.44
2022-11-22T04:19:54.169Z,971.43
2022-11-22T04:20:54.234Z,971.45
2022-11-22T04:21:55.149Z,971.45
2022-11-22T04:22:54.139Z,971.45
2022-11-22T04:23:54.139Z,971.48
2022-11-22T04:24:54.216Z,971.53
2022-11-22T04:25:54.132Z,971.55
2022-11-22T04:26:54.132Z,971.54
2022-11-22T04:27:54.132Z,971.56
2022-11-22T04:29:09.372Z,971.60
2022-11-22T04:29:55.131Z,971.62
2022-11-22T04:30:54.084Z,971.59
2022-11-22T04:31:54.084Z,971.62
2022-11-22T04:32:54.343Z,971.65
2022-11-22T04:33:54.041Z,971.69
2022-11-22T04:34:54.020Z,971.64
2022-11-22T04:35:54.020Z,971.71
2022-11-22T04:36:54.017Z,971.69
2022-11-22T04:37:54.021Z,971.65
2022-11-22T04:38:54.004Z,971.65
2022-11-22T04:39:54.052Z,971.59
2022-11-22T04:40:54.050Z,971.64
2022-11-22T04:41:53.972Z,971.63
2022-11-22T04:42:53.952Z,971.63
2022-11-22T04:43:54.043Z,971.70
2022-11-22T04:44:53.937Z,971.74
2022-11-22T04:45:53.930Z,971.75
2022-11-22T04:46:53.996Z,971.79
2022-11-22T04:47:53.901Z,971.77
2022-11-22T04:48:53.894Z,971.75
2022-11-22T04:49:54.581Z,971.80
2022-11-22T04:50:53.864Z,971.81
2022-11-22T04:51:53.903Z,971.79
2022-11-22T04:52:53.851Z,971.86
2022-11-22T04:53:53.874Z,971.81
2022-11-22T04:54:53.832Z,971.81
2022-11-22T04:55:53.894Z,971.86
2022-11-22T04:56:53.822Z,971.83
2022-11-22T04:57:59.128Z,971.80
2022-11-22T04:58:54.785Z,971.80
2022-11-22T04:59:53.800Z,971.77
2022-11-22T05:00:53.850Z,971.77
2022-11-22T05:01:54.261Z,971.85
2022-11-22T05:02:53.731Z,971.83
2022-11-22T05:03:53.759Z,971.83
2022-11-22T05:04:53.753Z,971.79
2022-11-22T05:05:53.730Z,971.77
2022-11-22T05:06:53.765Z,971.79
2022-11-22T05:07:53.722Z,971.77
2022-11-22T05:08:53.681Z,971.82
2022-11-22T05:09:53.696Z,971.80
2022-11-22T05:10:53.713Z,971.80
2022-11-22T05:11:53.814Z,971.79
2022-11-22T05:12:53.657Z,971.85
2022-11-22T05:13:53.700Z,971.89
2022-11-22T05:14:53.624Z,971.93
2022-11-22T05:15:53.612Z,971.97
2022-11-22T05:16:53.630Z,971.91
2022-11-22T05:17:53.591Z,971.94
2022-11-22T05:18:53.572Z,971.92
2022-11-22T05:19:53.661Z,972.00
2022-11-22T05:20:53.552Z,971.98
2022-11-22T05:21:53.584Z,971.96
2022-11-22T05:22:53.545Z,972.00
2022-11-22T05:23:53.727Z,972.02
2022-11-22T05:24:53.514Z,971.98
2022-11-22T05:25:53.526Z,972.01
2022-11-22T05:26:53.534Z,971.98
2022-11-22T05:27:53.512Z,971.92
2022-11-22T05:28:53.484Z,971.96
2022-11-22T05:29:53.511Z,971.91
2022-11-22T05:30:53.451Z,971.91
2022-11-22T05:31:53.502Z,971.93
2022-11-22T05:32:53.441Z,971.91
2022-11-22T05:33:53.441Z,971.92
2022-11-22T05:34:53.451Z,971.93
2022-11-22T05:35:53.631Z,971.91
2022-11-22T05:36:53.411Z,971.96
2022-11-22T05:37:53.404Z,971.92
2022-11-22T05:38:53.406Z,971.93
2022-11-22T05:39:53.393Z,971.89
2022-11-22T05:40:53.461Z,971.92
2022-11-22T05:41:53.394Z,971.92
2022-11-22T05:42:53.353Z,971.97
2022-11-22T05:43:53.352Z,971.96
2022-11-22T05:44:53.334Z,971.98
2022-11-22T05:45:53.313Z,972.02
2022-11-22T05:46:53.301Z,972.00
2022-11-22T05:47:53.300Z,972.02
2022-11-22T05:48:53.274Z,972.12
2022-11-22T05:49:53.285Z,972.04
2022-11-22T05:50:53.255Z,972.07
2022-11-22T05:51:53.304Z,972.08
2022-11-22T05:52:53.266Z,972.12
2022-11-22T05:53:53.224Z,972.10
2022-11-22T05:54:53.240Z,972.08
2022-11-22T05:55:53.193Z,972.14
2022-11-22T05:56:53.793Z,972.13
2022-11-22T05:57:53.172Z,972.19
2022-11-22T05:58:53.216Z,972.19
2022-11-22T05:59:53.176Z,972.21
2022-11-22T06:00:53.183Z,972.23
2022-11-22T06:01:53.208Z,972.25
2022-11-22T06:02:53.202Z,972.19
2022-11-22T06:03:53.163Z,972.25
2022-11-22T06:04:53.125Z,972.25
2022-11-22T06:05:53.124Z,972.24
2022-11-22T06:06:53.125Z,972.28
2022-11-22T06:07:53.195Z,972.27
2022-11-22T06:08:53.104Z,972.23
2022-11-22T06:09:53.057Z,972.16
2022-11-22T06:10:53.136Z,972.11
2022-11-22T06:11:53.033Z,972.14
2022-11-22T06:12:53.082Z,972.12
2022-11-22T06:13:53.035Z,972.18
2022-11-22T06:14:53.199Z,972.14
2022-11-22T06:15:53.013Z,972.14
2022-11-22T06:16:52.993Z,972.09
2022-11-22T06:17:52.984Z,972.11
2022-11-22T06:18:52.998Z,972.12
2022-11-22T06:19:52.974Z,972.18
2022-11-22T06:20:53.325Z,972.13
2022-11-22T06:21:52.938Z,972.20
2022-11-22T06:22:52.964Z,972.13
2022-11-22T06:23:52.924Z,972.16
2022-11-22T06:24:52.945Z,972.18
2022-11-22T06:25:52.939Z,972.19
2022-11-22T06:26:52.962Z,972.20
2022-11-22T06:27:52.874Z,972.12
2022-11-22T06:28:52.884Z,972.24
2022-11-22T06:29:52.854Z,972.19
2022-11-22T06:30:52.905Z,972.21
2022-11-22T06:31:52.844Z,972.22
2022-11-22T06:32:53.291Z,972.24
2022-11-22T06:33:52.823Z,972.21
2022-11-22T06:34:52.878Z,972.23
2022-11-22T06:35:52.807Z,972.28
2022-11-22T06:36:52.807Z,972.30
2022-11-22T06:37:57.480Z,972.25
2022-11-22T06:38:53.811Z,972.33
2022-11-22T06:39:52.755Z,972.32
2022-11-22T06:40:52.786Z,972.34
2022-11-22T06:41:52.745Z,972.38
2022-11-22T06:42:52.766Z,972.43
2022-11-22T06:43:52.703Z,972.43
2022-11-22T06:44:52.729Z,972.41
2022-11-22T06:45:52.705Z,972.39
2022-11-22T06:46:52.722Z,972.46
2022-11-22T06:47:52.664Z,972.41
2022-11-22T06:48:52.683Z,972.43
2022-11-22T06:49:52.664Z,972.48
2022-11-22T06:50:52.671Z,972.49
2022-11-22T06:51:52.636Z,972.49
2022-11-22T06:52:52.666Z,972.56
2022-11-22T06:53:52.632Z,972.55
2022-11-22T06:54:52.625Z,972.55
2022-11-22T06:55:56.802Z,972.60
2022-11-22T06:56:53.563Z,972.65
2022-11-22T06:57:52.715Z,972.66
2022-11-22T06:58:52.583Z,972.71
2022-11-22T06:59:52.565Z,972.73
2022-11-22T07:00:52.642Z,972.77
2022-11-22T07:01:52.653Z,972.79
2022-11-22T07:02:52.537Z,972.82
2022-11-22T07:03:52.555Z,972.80
2022-11-22T07:05:17.702Z,972.79
2022-11-22T07:05:53.463Z,972.84
2022-11-22T07:06:52.414Z,972.92
2022-11-22T07:07:52.512Z,972.90
2022-11-22T07:08:52.404Z,972.88
2022-11-22T07:09:56.399Z,972.90
2022-11-22T07:10:52.432Z,972.95
2022-11-22T07:11:52.407Z,972.92
2022-11-22T07:12:52.399Z,972.91
2022-11-22T07:13:52.455Z,972.98
2022-11-22T07:14:52.426Z,972.92
2022-11-22T07:15:52.407Z,973.03
2022-11-22T07:16:52.337Z,973.03
2022-11-22T07:17:52.326Z,973.02
2022-11-22T07:18:52.379Z,973.07
2022-11-22T07:19:52.449Z,972.98
2022-11-22T07:20:52.381Z,973.01
2022-11-22T07:21:52.446Z,973.02
2022-11-22T07:22:52.355Z,973.03
2022-11-22T07:23:52.345Z,973.09
2022-11-22T07:26:02.499Z,972.99
2022-11-22T07:27:02.509Z,972.93
2022-11-22T07:28:02.518Z,972.89
2022-11-22T07:29:02.492Z,972.88
2022-11-22T07:30:02.529Z,972.91
2022-11-22T07:31:02.443Z,972.89
2022-11-22T07:32:02.423Z,972.89
2022-11-22T07:33:02.481Z,972.92
2022-11-22T07:34:02.508Z,972.99
2022-11-22T07:35:02.450Z,973.00
2022-11-22T07:36:02.445Z,973.01
2022-11-22T07:37:07.590Z,972.96
2022-11-22T07:38:03.411Z,973.01
2022-11-22T07:39:02.417Z,973.02
2022-11-22T07:40:02.393Z,973.05
2022-11-22T07:41:02.400Z,973.05
2022-11-22T07:42:02.372Z,973.09
2022-11-22T07:43:03.036Z,973.09
2022-11-22T07:44:02.287Z,973.10
2022-11-22T07:45:02.287Z,973.09
2022-11-22T07:46:02.258Z,973.09
2022-11-22T07:47:02.301Z,973.11
2022-11-22T07:48:02.252Z,973.13
2022-11-22T07:49:02.292Z,973.17
2022-11-22T07:50:02.221Z,973.21
2022-11-22T07:51:02.235Z,973.26
2022-11-22T07:52:02.222Z,973.30
2022-11-22T07:53:02.263Z,973.32
2022-11-22T07:54:02.238Z,973.34
2022-11-22T07:55:02.239Z,973.33
2022-11-22T07:56:02.239Z,973.31
2022-11-22T07:57:02.229Z,973.32
2022-11-22T07:58:02.168Z,973.35
2022-11-22T07:59:02.169Z,973.32
2022-11-22T08:00:02.149Z,973.40
2022-11-22T08:01:02.121Z,973.39
2022-11-22T08:02:02.227Z,973.42
2022-11-22T08:03:02.123Z,973.48
2022-11-22T08:04:02.101Z,973.48
2022-11-22T08:05:02.108Z,973.51
2022-11-22T08:06:02.079Z,973.51
2022-11-22T08:07:02.097Z,973.52
2022-11-22T08:08:02.091Z,973.63
2022-11-22T08:09:02.550Z,973.59
2022-11-22T08:10:02.047Z,973.64
2022-11-22T08:11:01.999Z,973.65
2022-11-22T08:12:02.010Z,973.63
2022-11-22T08:13:01.979Z,973.68
2022-11-22T08:14:02.005Z,973.70
2022-11-22T08:15:01.969Z,973.79
2022-11-22T08:16:05.107Z,973.72
2022-11-22T08:17:02.072Z,973.82
2022-11-22T08:18:02.043Z,973.79
2022-11-22T08:19:02.001Z,973.83
2022-11-22T08:20:01.952Z,973.83
2022-11-22T08:21:01.949Z,973.81
2022-11-22T08:22:01.924Z,973.82
2022-11-22T08:23:01.918Z,973.83
2022-11-22T08:24:01.897Z,973.86
2022-11-22T08:25:01.872Z,973.85
2022-11-22T08:26:01.914Z,973.86
2022-11-22T08:27:01.848Z,973.89
2022-11-22T08:28:01.840Z,973.86
2022-11-22T08:29:01.879Z,973.87
2022-11-22T08:30:01.832Z,973.83
2022-11-22T08:31:01.790Z,973.81
2022-11-22T08:32:01.790Z,973.82
2022-11-22T08:33:01.794Z,973.85
2022-11-22T08:34:01.801Z,973.86
2022-11-22T08:35:01.780Z,973.86
2022-11-22T08:36:01.775Z,973.84
2022-11-22T08:37:01.772Z,973.88
2022-11-22T08:38:01.760Z,973.86
2022-11-22T08:39:01.730Z,973.88
2022-11-22T08:40:01.734Z,973.86
2022-11-22T08:41:02.659Z,973.87
2022-11-22T08:42:01.733Z,973.86
2022-11-22T08:43:01.709Z,973.83
2022-11-22T08:44:01.691Z,973.86
2022-11-22T08:45:01.746Z,973.89
2022-11-22T08:46:01.672Z,973.83
2022-11-22T08:47:01.642Z,973.86
2022-11-22T08:48:01.634Z,973.82
2022-11-22T08:49:01.631Z,973.84
2022-11-22T08:50:01.640Z,973.94
2022-11-22T08:51:01.623Z,973.89
2022-11-22T08:52:01.621Z,973.94
2022-11-22T08:53:01.639Z,974.01
2022-11-22T08:54:01.560Z,974.01
2022-11-22T08:55:01.579Z,974.06
2022-11-22T08:56:01.551Z,974.06
2022-11-22T08:57:01.564Z,974.07
2022-11-22T08:58:01.561Z,974.09
2022-11-22T08:59:01.582Z,974.11
2022-11-22T09:00:01.506Z,974.13
2022-11-22T09:01:01.577Z,974.11
2022-11-22T09:02:01.536Z,974.16
2022-11-22T09:03:01.512Z,974.15
2022-11-22T09:04:01.506Z,974.19
2022-11-22T09:05:01.577Z,974.12
2022-11-22T09:09:30.143Z,974.19
2022-11-22T09:10:02.400Z,974.15
2022-11-22T09:11:01.410Z,974.10
2022-11-22T09:12:01.380Z,974.12
2022-11-22T09:13:01.421Z,974.15
2022-11-22T09:14:01.390Z,974.14
2022-11-22T09:15:01.373Z,974.17
2022-11-22T09:16:01.364Z,974.14
2022-11-22T09:17:02.302Z,974.13
2022-11-22T09:18:01.322Z,974.13
2022-11-22T09:19:01.397Z,974.11
2022-11-22T09:20:02.281Z,974.09
2022-11-22T09:21:01.339Z,974.07
2022-11-22T09:22:01.296Z,974.06
2022-11-22T09:23:01.271Z,974.05
2022-11-22T09:24:01.270Z,974.06
2022-11-22T09:25:01.270Z,974.08
2022-11-22T09:26:01.231Z,974.04
2022-11-22T09:27:01.259Z,974.12
2022-11-22T09:28:01.232Z,974.10
2022-11-22T09:29:01.254Z,974.11
2022-11-22T09:30:01.223Z,974.14
2022-11-22T09:31:01.243Z,974.10
2022-11-22T09:32:01.239Z,974.07
2022-11-22T09:33:01.227Z,974.08
2022-11-22T09:34:01.172Z,974.08
2022-11-22T09:35:01.233Z,974.08
2022-11-22T09:36:01.182Z,974.07
2022-11-22T09:37:01.129Z,974.09
2022-11-22T09:38:01.129Z,974.03
2022-11-22T09:39:01.112Z,974.03
2022-11-22T09:40:01.137Z,974.02
2022-11-22T09:41:01.122Z,974.02
2022-11-22T09:42:01.092Z,974.01
2022-11-22T09:43:01.123Z,974.00
2022-11-22T09:44:01.053Z,974.05
2022-11-22T09:45:01.097Z,974.04
2022-11-22T09:46:01.034Z,974.02
2022-11-22T09:47:01.075Z,974.09
2022-11-22T09:48:04.210Z,974.07
2022-11-22T09:49:02.022Z,974.03
2022-11-22T09:50:00.995Z,974.02
2022-11-22T09:51:01.021Z,974.00
2022-11-22T09:52:00.971Z,974.06
2022-11-22T09:53:00.991Z,973.96
2022-11-22T09:54:00.983Z,973.97
2022-11-22T09:55:00.980Z,973.98
2022-11-22T09:56:00.942Z,973.97
2022-11-22T09:57:00.932Z,973.99
2022-11-22T09:58:00.913Z,973.95
2022-11-22T09:59:00.924Z,973.89
2022-11-22T10:00:00.892Z,973.91
2022-11-22T10:01:00.933Z,973.90
2022-11-22T10:02:16.917Z,973.90
2022-11-22T10:03:01.870Z,973.85
2022-11-22T10:04:00.897Z,973.85
2022-11-22T10:05:00.860Z,973.88
2022-11-22T10:06:00.823Z,973.91
2022-11-22T10:07:00.843Z,973.89
2022-11-22T10:08:00.812Z,973.86
2022-11-22T10:09:00.801Z,973.84
2022-11-22T10:10:00.781Z,973.84
2022-11-22T10:11:00.793Z,973.83
2022-11-22T10:12:00.765Z,973.83
2022-11-22T10:13:00.833Z,973.88
2022-11-22T10:14:00.744Z,973.89
2022-11-22T10:15:00.752Z,973.87
2022-11-22T10:16:00.725Z,973.93
2022-11-22T10:17:00.776Z,973.91
2022-11-22T10:18:00.723Z,973.95
2022-11-22T10:19:00.725Z,973.93
2022-11-22T10:20:00.682Z,973.98
2022-11-22T10:21:00.702Z,973.94
2022-11-22T10:22:00.662Z,973.95
2022-11-22T10:23:00.671Z,973.99
2022-11-22T10:24:00.645Z,973.92
2022-11-22T10:25:00.663Z,973.92
2022-11-22T10:26:00.653Z,973.94
2022-11-22T10:27:00.625Z,973.95
2022-11-22T10:28:01.103Z,973.96
2022-11-22T10:29:00.649Z,973.95
2022-11-22T10:30:00.586Z,973.99
2022-11-22T10:31:00.587Z,974.07
2022-11-22T10:32:00.584Z,974.04
2022-11-22T10:33:00.564Z,974.08
2022-11-22T10:34:01.512Z,974.06
2022-11-22T10:35:00.535Z,974.05
2022-11-22T10:36:00.513Z,974.11
2022-11-22T10:37:00.522Z,974.09
2022-11-22T10:38:01.642Z,974.09
2022-11-22T10:39:00.493Z,974.10
2022-11-22T10:40:00.473Z,974.08
2022-11-22T10:41:00.492Z,974.11
2022-11-22T10:42:00.454Z,974.06
2022-11-22T10:43:00.476Z,974.08
2022-11-22T10:44:00.445Z,974.05
2022-11-22T10:45:00.467Z,974.03
2022-11-22T10:46:00.424Z,974.02
2022-11-22T10:47:00.425Z,973.99
2022-11-22T10:48:00.394Z,973.98
2022-11-22T10:49:00.392Z,973.95
2022-11-22T10:50:00.375Z,973.98
2022-11-22T10:51:00.395Z,973.97
2022-11-22T10:52:00.380Z,974.05
2022-11-22T10:53:00.367Z,974.02
2022-11-22T10:54:03.532Z,974.03
2022-11-22T10:55:00.388Z,974.07
2022-11-22T10:56:00.315Z,974.04
2022-11-22T10:57:00.317Z,974.04
2022-11-22T10:58:00.286Z,974.01
2022-11-22T10:59:00.293Z,974.02
2022-11-22T11:00:00.291Z,974.00
2022-11-22T11:01:00.300Z,974.01
2022-11-22T11:02:00.246Z,973.97
2022-11-22T11:03:00.243Z,973.98
2022-11-22T11:04:00.242Z,973.96
2022-11-22T11:05:00.223Z,973.95
2022-11-22T11:06:21.712Z,973.99
2022-11-22T11:07:16.711Z,974.04
2022-11-22T11:08:22.241Z,974.03
2022-11-22T11:11:01.174Z,974.06
2022-11-22T11:12:00.155Z,974.09
2022-11-22T11:13:00.145Z,974.07
2022-11-22T11:14:00.141Z,974.12
2022-11-22T11:15:00.122Z,974.09
2022-11-22T11:16:00.137Z,974.07
2022-11-22T11:17:00.110Z,974.06
2022-11-22T11:18:00.136Z,974.03
2022-11-22T11:19:00.096Z,974.03
2022-11-22T11:20:00.095Z,974.05
2022-11-22T11:21:00.083Z,974.09
2022-11-22T11:22:00.056Z,974.06
2022-11-22T11:23:14.144Z,974.07
2022-11-22T11:24:01.050Z,974.02
2022-11-22T11:25:00.032Z,974.02
2022-11-22T11:26:00.028Z,974.04
2022-11-22T11:26:59.996Z,974.09
2022-11-22T11:28:00.006Z,974.04
2022-11-22T11:28:59.995Z,974.02
2022-11-22T11:29:59.964Z,974.05
2022-11-22T11:30:59.968Z,973.96
2022-11-22T11:31:59.963Z,974.02
2022-11-22T11:32:59.925Z,974.03
2022-11-22T11:33:59.976Z,974.05
2022-11-22T11:35:00.864Z,974.04
2022-11-22T11:35:59.954Z,974.08
2022-11-22T11:36:59.884Z,974.08
2022-11-22T11:37:59.927Z,974.10
2022-11-22T11:38:59.885Z,974.10
2022-11-22T11:39:59.876Z,974.11
2022-11-22T11:40:59.847Z,974.07
2022-11-22T11:41:59.875Z,974.10
2022-11-22T11:42:59.841Z,974.10
2022-11-22T11:43:59.836Z,974.08
2022-11-22T11:44:59.807Z,974.12
2022-11-22T11:45:59.813Z,974.12
2022-11-22T11:46:59.809Z,974.10
2022-11-22T11:47:59.785Z,974.11
2022-11-22T11:48:59.774Z,974.19
2022-11-22T11:49:59.817Z,974.12
2022-11-22T11:50:59.755Z,974.14
2022-11-22T11:51:59.767Z,974.17
2022-11-22T11:52:59.727Z,974.16
2022-11-22T11:53:59.737Z,974.17
2022-11-22T11:54:59.725Z,974.12
2022-11-22T11:55:59.716Z,974.11
2022-11-22T11:56:59.695Z,974.06
2022-11-22T11:57:59.684Z,974.02
2022-11-22T11:58:59.695Z,974.05
2022-11-22T11:59:59.645Z,974.03
2022-11-22T12:00:59.686Z,974.05
2022-11-22T12:01:59.743Z,974.05
2022-11-22T12:02:59.637Z,974.07
2022-11-22T12:03:59.651Z,974.06
2022-11-22T12:04:59.655Z,974.03
2022-11-22T12:05:59.598Z,974.04
2022-11-22T12:07:03.182Z,974.03
2022-11-22T12:07:59.652Z,974.07
2022-11-22T12:08:59.578Z,974.10
2022-11-22T12:09:59.537Z,974.11
2022-11-22T12:10:59.556Z,974.06
2022-11-22T12:11:59.527Z,974.03
2022-11-22T12:13:04.256Z,974.02
2022-11-22T12:15:15.678Z,974.04
2022-11-22T12:16:00.486Z,974.04
2022-11-22T12:16:59.497Z,974.06
2022-11-22T12:17:59.470Z,974.04
2022-11-22T12:18:59.469Z,973.96
2022-11-22T12:19:59.501Z,973.93
2022-11-22T12:20:59.467Z,973.91
2022-11-22T12:21:59.429Z,973.90
2022-11-22T12:22:59.427Z,973.89
2022-11-22T12:24:13.468Z,973.88
2022-11-22T12:25:30.461Z,973.88
2022-11-22T12:27:11.050Z,973.88
2022-11-22T12:28:10.990Z,973.90
2022-11-22T12:29:11.011Z,973.85
2022-11-22T12:30:10.997Z,973.86
2022-11-22T12:31:15.137Z,973.84
2022-11-22T12:32:10.969Z,973.85
2022-11-22T12:33:10.948Z,973.93
2022-11-22T12:34:10.931Z,973.83
2022-11-22T12:35:10.914Z,973.90
2022-11-22T12:36:10.983Z,973.89
2022-11-22T12:37:10.921Z,973.81
2022-11-22T12:38:10.887Z,973.89